Time;durP1;ratioP1;P1;durP2;ratioP2;P2;SDS_P1;SDS_P2;PMS_P1;PMS_P2;Temp;Humidity;BMP_temperature;BMP_pressure;BME280_temperature;BME280_humidity;BME280_pressure;Samples;Min_cycle;Max_cycle;Signal;HPM_P1;HPM_P2
2021/07/24 00:00:51;;;;;;;6.53;5.65;;;20.20;93.40;;;;;;4931373;29;20043;-86
2021/07/24 00:03:17;;;;;;;9.93;6.43;;;20.10;93.00;;;;;;4915535;29;20027;-86
2021/07/24 00:05:42;;;;;;;8.38;6.50;;;20.10;93.10;;;;;;4931308;29;20080;-86
2021/07/24 00:08:08;;;;;;;10.43;6.70;;;20.10;93.20;;;;;;4914866;29;20031;-86
2021/07/24 00:10:33;;;;;;;11.65;6.75;;;20.10;93.00;;;;;;4931189;29;20067;-86
2021/07/24 00:12:59;;;;;;;10.43;6.38;;;20.10;93.10;;;;;;4921076;29;20036;-86
2021/07/24 00:15:24;;;;;;;7.50;6.72;;;20.10;93.20;;;;;;4914775;29;20058;-87
2021/07/24 00:17:50;;;;;;;10.43;6.60;;;20.10;93.20;;;;;;4914356;29;20174;-86
2021/07/24 00:20:15;;;;;;;11.00;6.18;;;20.00;93.10;;;;;;4931193;29;20113;-86
2021/07/24 00:22:41;;;;;;;12.05;7.30;;;20.00;93.10;;;;;;4915340;29;20024;-85
2021/07/24 00:25:07;;;;;;;11.85;6.25;;;20.00;93.10;;;;;;4915196;29;20047;-86
2021/07/24 00:27:32;;;;;;;7.47;6.00;;;20.00;92.90;;;;;;4914383;29;20024;-86
2021/07/24 00:29:58;;;;;;;10.18;6.50;;;20.00;93.10;;;;;;4914880;29;20475;-86
2021/07/24 00:32:24;;;;;;;13.25;7.00;;;20.00;93.00;;;;;;4914775;29;20056;-85
2021/07/24 00:34:49;;;;;;;10.55;6.65;;;20.00;92.90;;;;;;4914930;29;21538;-86
2021/07/24 00:37:16;;;;;;;12.10;6.40;;;20.00;93.10;;;;;;4930377;29;20039;-86
2021/07/24 00:39:41;;;;;;;10.77;6.88;;;20.00;93.10;;;;;;4898980;29;20403;-86
2021/07/24 00:42:15;;;;;;;11.35;6.97;;;19.90;93.10;;;;;;4899068;29;20043;-86
2021/07/24 00:44:45;;;;;;;11.60;7.10;;;19.90;93.10;;;;;;4898568;29;20102;-86
2021/07/24 00:47:11;;;;;;;9.10;6.57;;;19.90;92.90;;;;;;4914251;29;20062;-85
2021/07/24 00:49:36;;;;;;;11.32;6.57;;;19.80;93.30;;;;;;4934777;29;20023;-86
2021/07/24 00:52:02;;;;;;;10.93;7.00;;;19.80;93.30;;;;;;4933422;29;20034;-86
2021/07/24 00:54:30;;;;;;;9.48;6.63;;;19.80;93.30;;;;;;4902586;29;20039;-86
2021/07/24 00:56:56;;;;;;;9.52;6.72;;;19.80;93.30;;;;;;4929841;29;20027;-86
2021/07/24 00:59:21;;;;;;;8.45;6.53;;;19.70;93.60;;;;;;4914079;29;20042;-86
2021/07/24 01:01:47;;;;;;;8.20;6.25;;;19.70;93.50;;;;;;4912750;29;20062;-85
2021/07/24 01:04:13;;;;;;;10.85;6.85;;;19.70;93.50;;;;;;4911259;29;20028;-86
2021/07/24 01:06:39;;;;;;;10.05;7.35;;;19.60;93.70;;;;;;4911023;29;20039;-85
2021/07/24 01:09:04;;;;;;;10.25;6.78;;;19.60;93.70;;;;;;4911014;29;20127;-86
2021/07/24 01:11:30;;;;;;;15.60;7.22;;;19.60;93.80;;;;;;4920679;29;20554;-86
2021/07/24 01:13:55;;;;;;;14.60;7.57;;;19.60;93.70;;;;;;4914568;29;20067;-86
2021/07/24 01:16:21;;;;;;;10.57;6.80;;;19.50;93.80;;;;;;4932363;29;20028;-86
2021/07/24 01:18:46;;;;;;;9.73;7.05;;;19.50;93.90;;;;;;4916780;29;20027;-86
2021/07/24 01:21:12;;;;;;;10.50;7.55;;;19.50;94.00;;;;;;4932791;29;20546;-86
2021/07/24 01:23:37;;;;;;;9.90;7.05;;;19.50;94.00;;;;;;4933239;29;20043;-86
2021/07/24 01:26:03;;;;;;;10.48;7.10;;;19.50;94.00;;;;;;4921643;29;20398;-85
2021/07/24 01:28:35;;;;;;;14.98;7.65;;;19.50;93.90;;;;;;4913895;29;20028;-86
2021/07/24 01:31:02;;;;;;;9.52;7.20;;;19.40;93.80;;;;;;4908497;29;20185;-85
2021/07/24 01:33:29;;;;;;;12.63;7.28;;;19.40;93.80;;;;;;4929350;29;20038;-85
2021/07/24 01:35:54;;;;;;;11.30;7.53;;;19.40;93.90;;;;;;4924690;29;20030;-86
2021/07/24 01:38:20;;;;;;;8.95;7.07;;;19.40;93.70;;;;;;4932174;29;20453;-86
2021/07/24 01:40:45;;;;;;;12.90;8.32;;;19.30;93.90;;;;;;4914563;29;20035;-86
2021/07/24 01:43:11;;;;;;;13.65;7.68;;;19.30;93.70;;;;;;4929608;29;20028;-85
2021/07/24 01:45:37;;;;;;;12.70;7.70;;;19.30;94.10;;;;;;4929884;29;20031;-85
2021/07/24 01:48:06;;;;;;;10.75;7.60;;;19.20;94.00;;;;;;4928973;29;20028;-86
2021/07/24 01:53:15;;;;;;;8.63;6.75;;;19.20;94.90;;;;;;4929732;29;20119;-86
2021/07/24 01:55:51;;;;;;;11.38;7.70;;;19.20;94.50;;;;;;4928903;29;20040;-86
2021/07/24 01:58:18;;;;;;;10.00;6.88;;;19.10;94.30;;;;;;4912989;29;20079;-86
2021/07/24 02:00:44;;;;;;;11.27;7.78;;;19.10;94.50;;;;;;4898400;29;20091;-86
2021/07/24 02:03:12;;;;;;;14.85;9.05;;;19.00;94.50;;;;;;4916721;29;20553;-86
2021/07/24 02:05:48;;;;;;;11.50;8.23;;;19.00;94.70;;;;;;4932614;29;20035;-86
2021/07/24 02:08:21;;;;;;;10.23;7.50;;;19.00;94.70;;;;;;4916542;29;20666;-86
2021/07/24 02:10:47;;;;;;;12.52;7.28;;;19.00;94.70;;;;;;4894821;29;20134;-86
2021/07/24 02:13:13;;;;;;;12.35;7.50;;;19.00;94.80;;;;;;4897988;29;20118;-86
2021/07/24 02:15:39;;;;;;;18.08;8.07;;;18.90;94.70;;;;;;4920846;29;20130;-85
2021/07/24 02:18:05;;;;;;;12.88;8.77;;;18.90;94.90;;;;;;4931152;29;20053;-86
2021/07/24 02:20:30;;;;;;;11.20;8.25;;;18.90;94.80;;;;;;4916460;29;20023;-85
2021/07/24 02:22:56;;;;;;;15.35;7.68;;;18.90;95.10;;;;;;4916298;29;20573;-87
2021/07/24 02:25:22;;;;;;;15.02;8.43;;;18.90;95.00;;;;;;4932216;29;20033;-88
2021/07/24 02:27:48;;;;;;;11.82;8.05;;;18.80;95.00;;;;;;4920768;29;20169;-89
2021/07/24 02:30:14;;;;;;;11.20;8.40;;;18.80;94.90;;;;;;4897460;29;20502;-89
2021/07/24 02:32:40;;;;;;;35.42;9.18;;;18.80;95.20;;;;;;4897130;29;20027;-88
2021/07/24 02:35:06;;;;;;;12.23;8.20;;;18.80;95.30;;;;;;4897378;29;20395;-88
2021/07/24 02:37:31;;;;;;;13.15;8.65;;;18.80;95.30;;;;;;4897045;29;20034;-88
2021/07/24 02:39:57;;;;;;;12.70;8.48;;;18.80;95.10;;;;;;4897243;29;20028;-87
2021/07/24 02:42:22;;;;;;;11.27;8.35;;;18.80;95.60;;;;;;4896998;29;20459;-87
2021/07/24 02:44:48;;;;;;;11.38;8.48;;;18.80;95.40;;;;;;4897290;29;20099;-87
2021/07/24 02:47:13;;;;;;;12.07;8.73;;;18.80;95.30;;;;;;4912947;29;20094;-88
2021/07/24 02:49:39;;;;;;;10.00;8.05;;;18.80;95.60;;;;;;4912882;29;20034;-87
2021/07/24 02:52:05;;;;;;;14.05;8.57;;;18.70;95.30;;;;;;4897110;29;20032;-86
2021/07/24 02:54:30;;;;;;;13.77;9.15;;;18.70;95.40;;;;;;4912854;29;20080;-87
2021/07/24 02:56:56;;;;;;;11.98;8.43;;;18.70;95.20;;;;;;4912856;29;20510;-87
2021/07/24 02:59:22;;;;;;;18.38;9.27;;;18.70;95.60;;;;;;4912652;29;20039;-87
2021/07/24 03:01:47;;;;;;;13.48;9.07;;;18.80;95.40;;;;;;4913007;29;20538;-88
2021/07/24 03:04:13;;;;;;;10.88;8.73;;;18.80;95.20;;;;;;4897286;29;20032;-86
2021/07/24 03:06:38;;;;;;;15.00;9.80;;;18.80;95.30;;;;;;4926363;29;20084;-86
2021/07/24 03:09:06;;;;;;;13.98;9.27;;;18.70;95.10;;;;;;4924994;29;20036;-86
2021/07/24 03:11:32;;;;;;;13.02;10.02;;;18.80;95.10;;;;;;4919093;29;20055;-85
2021/07/24 03:13:58;;;;;;;16.95;9.70;;;18.80;95.40;;;;;;4915363;29;20035;-86
2021/07/24 03:16:23;;;;;;;13.82;9.98;;;18.70;95.30;;;;;;4896726;29;20039;-85
2021/07/24 03:18:49;;;;;;;16.15;10.07;;;18.70;95.50;;;;;;4907820;29;20103;-85
2021/07/24 03:21:14;;;;;;;11.75;9.35;;;18.70;95.00;;;;;;4897011;29;20546;-86
2021/07/24 03:23:40;;;;;;;14.38;9.95;;;18.60;95.20;;;;;;4900694;29;20042;-85
2021/07/24 03:26:08;;;;;;;14.88;9.35;;;18.60;95.40;;;;;;4912319;29;20036;-86
2021/07/24 03:28:34;;;;;;;14.80;9.80;;;18.60;95.50;;;;;;4928119;29;20490;-86
2021/07/24 03:31:00;;;;;;;15.88;10.40;;;18.60;95.70;;;;;;4927789;29;20028;-86
2021/07/24 03:33:25;;;;;;;15.13;9.88;;;18.60;95.70;;;;;;4913004;29;20043;-85
2021/07/24 03:35:51;;;;;;;17.70;9.95;;;18.60;95.60;;;;;;4932343;29;20027;-86
2021/07/24 03:38:16;;;;;;;16.42;10.27;;;18.60;95.60;;;;;;4902354;29;20138;-86
2021/07/24 03:40:43;;;;;;;14.98;10.10;;;18.60;96.00;;;;;;4928295;29;20083;-85
2021/07/24 03:43:09;;;;;;;18.30;10.40;;;18.50;95.80;;;;;;4917921;29;20038;-85
2021/07/24 03:45:35;;;;;;;13.20;9.02;;;18.60;95.70;;;;;;4931129;29;20127;-86
2021/07/24 03:48:01;;;;;;;15.10;10.02;;;18.60;95.40;;;;;;4915225;29;20114;-85
2021/07/24 03:50:27;;;;;;;13.60;10.32;;;18.60;95.40;;;;;;4915818;29;20574;-86
2021/07/24 03:52:53;;;;;;;14.40;9.70;;;18.60;95.50;;;;;;4915740;29;20039;-85
2021/07/24 03:55:18;;;;;;;14.18;10.55;;;18.60;95.70;;;;;;4921632;29;20094;-86
2021/07/24 03:57:44;;;;;;;12.90;9.50;;;18.60;95.70;;;;;;4934302;29;20078;-85
2021/07/24 04:00:09;;;;;;;13.50;9.93;;;18.60;95.50;;;;;;4930313;29;20032;-86
2021/07/24 04:02:38;;;;;;;12.50;9.48;;;18.70;95.50;;;;;;4918699;29;20087;-85
2021/07/24 04:05:04;;;;;;;16.45;10.05;;;18.60;95.50;;;;;;4918801;29;20027;-86
2021/07/24 04:07:29;;;;;;;13.52;10.65;;;18.60;95.50;;;;;;4933907;29;20039;-86
2021/07/24 04:09:55;;;;;;;11.95;9.55;;;18.70;95.40;;;;;;4918403;29;20067;-86
2021/07/24 04:12:20;;;;;;;11.73;9.75;;;18.60;95.30;;;;;;4918154;29;20031;-86
2021/07/24 04:14:46;;;;;;;14.15;10.60;;;18.60;95.60;;;;;;4913953;29;20040;-85
2021/07/24 04:17:11;;;;;;;11.88;9.23;;;18.60;95.50;;;;;;4899001;29;20139;-86
2021/07/24 04:19:37;;;;;;;17.27;10.00;;;18.60;95.60;;;;;;4899130;29;20028;-86
2021/07/24 04:22:03;;;;;;;16.08;9.95;;;18.60;95.20;;;;;;4899282;29;20032;-85
2021/07/24 04:24:28;;;;;;;14.95;9.63;;;18.60;95.30;;;;;;4914608;29;20028;-86
2021/07/24 04:26:54;;;;;;;17.40;10.43;;;18.60;95.40;;;;;;4930664;29;20122;-86
2021/07/24 04:29:21;;;;;;;17.80;10.57;;;18.60;95.60;;;;;;4914695;29;20063;-85
2021/07/24 04:31:47;;;;;;;13.70;10.45;;;18.60;95.60;;;;;;4915119;29;20035;-85
2021/07/24 04:34:12;;;;;;;12.52;9.82;;;18.60;95.30;;;;;;4914910;29;20042;-85
2021/07/24 04:36:40;;;;;;;14.73;10.63;;;18.60;95.40;;;;;;4899149;29;20054;-85
2021/07/24 04:39:05;;;;;;;14.02;10.63;;;18.60;95.30;;;;;;4898794;29;20451;-85
2021/07/24 04:41:31;;;;;;;16.15;10.68;;;18.70;95.50;;;;;;4928442;29;20074;-85
2021/07/24 04:43:56;;;;;;;13.82;10.13;;;18.70;95.60;;;;;;4930650;29;20036;-86
2021/07/24 04:46:22;;;;;;;18.15;11.00;;;18.70;95.50;;;;;;4930669;29;20027;-85
2021/07/24 04:48:47;;;;;;;14.38;9.57;;;18.70;95.50;;;;;;4898377;29;20042;-85
2021/07/24 04:51:14;;;;;;;15.07;10.70;;;18.70;95.60;;;;;;4914517;29;20376;-86
2021/07/24 04:53:40;;;;;;;18.20;12.20;;;18.70;95.80;;;;;;4898953;29;20042;-86
2021/07/24 04:56:06;;;;;;;18.13;10.65;;;18.70;96.00;;;;;;4929753;29;20407;-85
2021/07/24 04:58:31;;;;;;;14.38;10.73;;;18.70;95.90;;;;;;4931042;29;20079;-86
2021/07/24 05:00:57;;;;;;;15.88;10.65;;;18.70;95.70;;;;;;4910699;29;20035;-85
2021/07/24 05:03:22;;;;;;;14.98;11.15;;;18.70;95.70;;;;;;4927079;29;20028;-85
2021/07/24 05:05:49;;;;;;;14.07;10.52;;;18.70;95.70;;;;;;4930108;29;20507;-86
2021/07/24 05:08:15;;;;;;;16.85;11.15;;;18.70;95.70;;;;;;4914087;29;20171;-86
2021/07/24 05:10:40;;;;;;;15.30;11.00;;;18.80;95.60;;;;;;4930330;29;20103;-86
2021/07/24 05:13:06;;;;;;;16.48;10.15;;;18.70;95.60;;;;;;4932470;29;20027;-85
2021/07/24 05:15:31;;;;;;;15.45;10.48;;;18.70;95.70;;;;;;4929870;29;20578;-85
2021/07/24 05:17:57;;;;;;;13.75;10.50;;;18.70;95.70;;;;;;4929596;29;20491;-86
2021/07/24 05:20:24;;;;;;;16.75;10.27;;;18.70;95.50;;;;;;4934408;29;20082;-85
2021/07/24 05:22:50;;;;;;;13.90;10.30;;;18.80;95.50;;;;;;4898469;29;20027;-85
2021/07/24 05:25:16;;;;;;;14.88;10.98;;;18.80;95.70;;;;;;4914168;29;20390;-86
2021/07/24 05:27:41;;;;;;;19.00;11.48;;;18.80;95.60;;;;;;4897950;29;20028;-85
2021/07/24 05:30:08;;;;;;;19.27;11.05;;;18.80;95.60;;;;;;4913775;29;20044;-85
2021/07/24 05:32:34;;;;;;;13.15;10.05;;;18.80;95.60;;;;;;4898106;29;20558;-86
2021/07/24 05:34:59;;;;;;;15.13;10.27;;;18.90;95.50;;;;;;4924664;29;20071;-86
2021/07/24 05:37:25;;;;;;;15.35;10.95;;;18.90;95.40;;;;;;4916512;29;20113;-85
2021/07/24 05:39:50;;;;;;;12.65;10.52;;;18.90;95.50;;;;;;4932305;29;20062;-86
2021/07/24 05:42:16;;;;;;;17.17;10.75;;;18.90;95.40;;;;;;4924753;29;20040;-86
2021/07/24 05:44:41;;;;;;;17.70;11.52;;;19.00;95.50;;;;;;4929630;29;20036;-86
2021/07/24 05:47:07;;;;;;;18.08;11.23;;;19.00;95.50;;;;;;4929312;29;20079;-85
2021/07/24 05:49:33;;;;;;;16.00;11.00;;;19.00;95.50;;;;;;4953549;23;20016;-88
2021/07/24 05:51:59;;;;;;;16.10;10.88;;;19.10;95.60;;;;;;4991409;28;20033;-84
2021/07/24 05:54:24;;;;;;;19.67;11.10;;;19.10;95.60;;;;;;4994094;28;20448;-85
2021/07/24 05:56:50;;;;;;;19.80;11.45;;;19.10;95.50;;;;;;4997428;28;20032;-85
2021/07/24 05:59:15;;;;;;;16.73;10.77;;;19.10;95.50;;;;;;5013103;28;20048;-85
2021/07/24 06:01:41;;;;;;;18.65;11.48;;;19.10;95.60;;;;;;4964257;28;20029;-85
2021/07/24 06:04:08;;;;;;;13.90;10.40;;;19.10;95.50;;;;;;4990945;28;20519;-85
2021/07/24 06:06:34;;;;;;;13.40;9.85;;;19.20;95.60;;;;;;4996584;28;20025;-85
2021/07/24 06:08:59;;;;;;;17.30;10.32;;;19.20;95.60;;;;;;5010644;28;20399;-85
2021/07/24 06:11:25;;;;;;;17.67;10.75;;;19.20;95.70;;;;;;4977006;28;20033;-85
2021/07/24 06:13:50;;;;;;;15.93;10.95;;;19.30;95.60;;;;;;4977833;28;20045;-85
2021/07/24 06:16:16;;;;;;;16.90;11.20;;;19.30;95.70;;;;;;4994048;28;20033;-86
2021/07/24 06:18:41;;;;;;;16.55;10.77;;;19.40;95.70;;;;;;4977705;28;20087;-85
2021/07/24 06:21:13;;;;;;;15.25;10.68;;;19.40;95.50;;;;;;4992385;28;20058;-85
2021/07/24 06:23:39;;;;;;;13.38;10.10;;;19.40;95.50;;;;;;5005206;28;20032;-85
2021/07/24 06:26:04;;;;;;;12.63;10.32;;;19.50;95.40;;;;;;4990704;28;20033;-85
2021/07/24 06:28:30;;;;;;;15.73;11.05;;;19.50;95.50;;;;;;5006827;28;20405;-85
2021/07/24 06:30:55;;;;;;;17.02;11.60;;;19.60;95.60;;;;;;4993408;28;20029;-85
2021/07/24 06:33:21;;;;;;;20.38;11.45;;;19.60;95.60;;;;;;4977300;28;20037;-86
2021/07/24 06:35:46;;;;;;;13.48;10.63;;;20.50;95.80;;;;;;4966061;28;20491;-85
2021/07/24 06:38:12;;;;;;;15.18;10.55;;;19.70;95.50;;;;;;4974010;28;20025;-86
2021/07/24 06:40:37;;;;;;;15.77;11.20;;;19.70;95.50;;;;;;4977192;28;20051;-84
2021/07/24 06:43:03;;;;;;;15.10;11.35;;;19.80;95.70;;;;;;4975799;28;20532;-85
2021/07/24 06:45:30;;;;;;;15.75;11.63;;;19.80;95.70;;;;;;4988926;28;20026;-86
2021/07/24 06:47:55;;;;;;;15.05;11.18;;;19.80;95.40;;;;;;4974002;28;20118;-85
2021/07/24 06:50:23;;;;;;;13.80;11.30;;;19.90;95.20;;;;;;4994180;28;20121;-85
2021/07/24 06:52:50;;;;;;;14.32;11.43;;;19.90;95.20;;;;;;4993183;28;20029;-86
2021/07/24 06:55:15;;;;;;;17.65;11.60;;;19.90;95.30;;;;;;4991581;28;20115;-85
2021/07/24 06:57:41;;;;;;;18.92;11.07;;;19.90;95.20;;;;;;4990843;28;20063;-86
2021/07/24 07:00:07;;;;;;;15.55;11.10;;;20.00;95.20;;;;;;4984787;28;20013;-85
2021/07/24 07:02:32;;;;;;;12.95;11.55;;;20.00;95.30;;;;;;5006061;28;20046;-86
2021/07/24 07:04:58;;;;;;;19.35;11.68;;;20.00;95.30;;;;;;4967437;28;20025;-85
2021/07/24 07:07:23;;;;;;;16.25;11.55;;;20.00;95.20;;;;;;4972630;28;20192;-85
2021/07/24 07:09:49;;;;;;;16.13;11.43;;;20.00;95.30;;;;;;4997017;28;20455;-85
2021/07/24 07:12:15;;;;;;;17.35;11.60;;;20.10;95.40;;;;;;4988918;28;20079;-86
2021/07/24 07:14:40;;;;;;;15.48;11.25;;;20.10;95.60;;;;;;4980519;28;20030;-86
2021/07/24 07:17:06;;;;;;;20.83;11.95;;;20.10;95.40;;;;;;4977395;28;20053;-86
2021/07/24 07:19:31;;;;;;;13.32;11.27;;;20.10;95.40;;;;;;4979880;28;20881;-87
2021/07/24 07:21:57;;;;;;;21.10;11.95;;;20.20;95.50;;;;;;4982801;28;20037;-87
2021/07/24 07:24:23;;;;;;;15.95;11.63;;;20.30;95.50;;;;;;4972981;28;20045;-86
2021/07/24 07:26:48;;;;;;;16.77;11.68;;;20.30;95.50;;;;;;4976871;28;20040;-86
2021/07/24 07:29:14;;;;;;;12.55;11.00;;;20.30;95.50;;;;;;4992962;28;20034;-86
2021/07/24 07:31:39;;;;;;;17.40;11.43;;;20.30;95.50;;;;;;4974972;28;20057;-86
2021/07/24 07:34:05;;;;;;;18.05;12.13;;;20.40;95.60;;;;;;4960789;28;20083;-87
2021/07/24 07:36:31;;;;;;;13.15;10.93;;;20.40;95.50;;;;;;4961499;28;20026;-88
2021/07/24 07:38:56;;;;;;;13.57;10.40;;;20.40;95.50;;;;;;4969750;28;20033;-86
2021/07/24 07:41:22;;;;;;;18.25;11.77;;;20.50;95.50;;;;;;4976884;28;20026;-87
2021/07/24 07:43:47;;;;;;;14.88;11.70;;;20.50;95.40;;;;;;4977211;28;20032;-87
2021/07/24 07:46:13;;;;;;;19.95;12.13;;;20.60;95.10;;;;;;4976832;28;20033;-87
2021/07/24 07:48:39;;;;;;;14.73;10.32;;;20.60;95.10;;;;;;4965278;28;20036;-87
2021/07/24 07:51:04;;;;;;;15.10;10.70;;;20.60;95.30;;;;;;4977009;28;20049;-86
2021/07/24 07:53:30;;;;;;;15.05;11.70;;;20.70;95.10;;;;;;4979734;28;20033;-86
2021/07/24 07:55:56;;;;;;;17.08;10.77;;;20.70;95.00;;;;;;4993506;28;20037;-87
2021/07/24 07:58:23;;;;;;;17.65;11.07;;;20.80;94.90;;;;;;4960585;28;20080;-85
2021/07/24 08:00:49;;;;;;;14.70;11.68;;;20.80;94.70;;;;;;4966194;28;20034;-85
2021/07/24 08:03:14;;;;;;;17.35;11.32;;;20.80;94.90;;;;;;4960633;28;20044;-86
2021/07/24 08:05:40;;;;;;;13.60;11.43;;;20.90;94.70;;;;;;4984477;28;20033;-85
2021/07/24 08:08:06;;;;;;;14.23;10.77;;;20.90;94.50;;;;;;4963778;28;20056;-85
2021/07/24 08:10:31;;;;;;;14.35;10.38;;;21.00;94.20;;;;;;4960557;28;20022;-85
2021/07/24 08:12:57;;;;;;;14.10;11.23;;;21.00;94.30;;;;;;4960315;28;20022;-83
2021/07/24 08:15:22;;;;;;;17.92;11.23;;;21.00;94.10;;;;;;4988570;28;20085;-83
2021/07/24 08:17:48;;;;;;;15.32;10.60;;;21.00;93.90;;;;;;4967106;28;20029;-83
2021/07/24 08:20:13;;;;;;;20.58;11.40;;;21.10;93.90;;;;;;4976321;28;20030;-83
2021/07/24 08:22:39;;;;;;;15.70;11.10;;;21.10;94.10;;;;;;4974069;28;20025;-83
2021/07/24 08:25:05;;;;;;;17.13;11.98;;;21.10;94.00;;;;;;4995635;28;20444;-83
2021/07/24 08:27:34;;;;;;;15.50;10.98;;;21.20;94.30;;;;;;5011934;28;20037;-83
2021/07/24 08:29:59;;;;;;;18.63;11.77;;;21.20;94.20;;;;;;4994863;28;20030;-83
2021/07/24 08:32:25;;;;;;;13.25;10.82;;;21.20;94.00;;;;;;4979574;28;20029;-83
2021/07/24 08:34:51;;;;;;;15.98;11.95;;;21.30;94.00;;;;;;4979724;28;20109;-83
2021/07/24 08:37:17;;;;;;;19.65;11.73;;;21.30;93.70;;;;;;4975394;28;20034;-83
2021/07/24 08:39:42;;;;;;;17.80;11.70;;;21.40;94.00;;;;;;4976029;28;20515;-83
2021/07/24 08:42:08;;;;;;;19.45;11.45;;;21.40;94.20;;;;;;4976072;28;20038;-83
2021/07/24 08:44:37;;;;;;;18.77;12.55;;;21.40;94.40;;;;;;4991911;28;20112;-83
2021/07/24 08:47:06;;;;;;;17.38;12.30;;;21.40;94.40;;;;;;4978923;28;20030;-83
2021/07/24 08:49:31;;;;;;;19.75;12.57;;;21.50;94.30;;;;;;4994931;28;20484;-83
2021/07/24 08:51:58;;;;;;;35.08;17.13;;;21.50;94.30;;;;;;4983985;28;20036;-83
2021/07/24 08:54:23;;;;;;;27.38;13.98;;;21.50;94.20;;;;;;5005491;28;20037;-84
2021/07/24 08:56:49;;;;;;;17.50;12.15;;;21.50;94.10;;;;;;4975775;28;20489;-84
2021/07/24 08:59:15;;;;;;;18.08;12.77;;;21.60;93.90;;;;;;4975520;28;20022;-84
2021/07/24 09:01:41;;;;;;;17.02;11.63;;;21.60;93.20;;;;;;4975779;28;20026;-84
2021/07/24 09:04:06;;;;;;;18.55;12.65;;;21.60;93.10;;;;;;4959469;28;20068;-84
2021/07/24 09:06:32;;;;;;;16.45;11.82;;;21.60;93.20;;;;;;4975484;28;20030;-84
2021/07/24 09:08:57;;;;;;;15.63;11.70;;;21.70;93.10;;;;;;4975264;28;20121;-84
2021/07/24 09:11:23;;;;;;;15.57;11.07;;;21.70;93.60;;;;;;4975170;28;20547;-84
2021/07/24 09:13:49;;;;;;;15.77;11.82;;;21.70;94.40;;;;;;4975546;28;20117;-84
2021/07/24 09:16:15;;;;;;;20.42;11.77;;;21.70;94.80;;;;;;4971318;28;20574;-84
2021/07/24 09:18:41;;;;;;;15.32;11.75;;;21.70;94.10;;;;;;4994642;28;20060;-84
2021/07/24 09:21:07;;;;;;;16.83;11.70;;;21.60;93.80;;;;;;4978384;28;20115;-84
2021/07/24 09:23:35;;;;;;;13.85;11.00;;;21.60;93.80;;;;;;4994763;28;20170;-84
2021/07/24 09:26:04;;;;;;;15.52;11.40;;;21.60;94.30;;;;;;4994677;28;20037;-84
2021/07/24 09:28:29;;;;;;;17.08;11.70;;;21.60;94.80;;;;;;4994407;28;20408;-84
2021/07/24 09:30:55;;;;;;;17.80;12.18;;;21.60;94.70;;;;;;4974945;28;20038;-83
2021/07/24 09:33:20;;;;;;;18.30;11.80;;;21.60;94.50;;;;;;4975282;28;20034;-84
2021/07/24 09:35:50;;;;;;;20.67;13.40;;;21.60;94.70;;;;;;4977428;28;20033;-84
2021/07/24 09:38:32;;;;;;;15.70;12.45;;;21.60;94.80;;;;;;4994448;28;20083;-83
2021/07/24 09:41:00;;;;;;;15.95;12.45;;;21.60;94.40;;;;;;4988976;28;20028;-83
2021/07/24 09:43:33;;;;;;;20.45;12.98;;;21.60;94.80;;;;;;4988826;28;20094;-83
2021/07/24 09:46:17;;;;;;;18.70;12.88;;;21.60;94.70;;;;;;5010777;28;20052;-84
2021/07/24 09:48:47;;;;;;;20.67;12.95;;;21.70;93.70;;;;;;5010768;28;20575;-83
2021/07/24 10:57:10;;;;;;;22.52;14.93;;;22.10;93.10;;;;;;5004409;28;20053;-84
2021/07/24 11:12:46;;;;;;;18.60;13.50;;;22.00;92.10;;;;;;5006817;23;20054;-85
2021/07/24 11:19:11;;;;;;;18.65;13.82;;;22.00;91.80;;;;;;4945900;29;20046;-84
2021/07/24 11:22:14;;;;;;;18.40;13.60;;;22.00;92.00;;;;;;5053220;23;20065;-86
2021/07/24 11:24:44;;;;;;;20.00;13.35;;;22.00;91.90;;;;;;5010275;28;20657;-83
2021/07/24 11:27:10;;;;;;;19.52;13.38;;;21.90;91.80;;;;;;4992999;28;20069;-84
2021/07/24 11:29:38;;;;;;;17.88;14.77;;;21.90;92.60;;;;;;5009142;28;20053;-83
2021/07/24 11:32:04;;;;;;;19.17;12.75;;;21.90;93.10;;;;;;4993695;28;20075;-84
2021/07/24 11:34:30;;;;;;;21.98;14.30;;;21.90;93.40;;;;;;5009970;28;20587;-86
2021/07/24 11:36:56;;;;;;;18.58;14.88;;;21.80;92.80;;;;;;5010878;28;20543;-85
2021/07/24 11:39:25;;;;;;;17.80;14.40;;;21.90;92.90;;;;;;4975675;28;20097;-85
2021/07/24 11:41:51;;;;;;;16.33;13.75;;;21.90;92.90;;;;;;4992519;28;20022;-86
2021/07/24 11:44:31;;;;;;;19.10;14.65;;;21.90;92.60;;;;;;4976346;28;20749;-86
2021/07/24 11:47:00;;;;;;;22.25;14.18;;;21.90;92.30;;;;;;4979054;28;20047;-85
2021/07/24 11:49:26;;;;;;;23.58;15.05;;;21.80;92.00;;;;;;4995198;28;20032;-86
2021/07/24 11:51:52;;;;;;;18.90;14.25;;;21.80;92.00;;;;;;4996799;28;20057;-86
2021/07/24 11:54:33;;;;;;;18.63;14.50;;;21.90;92.00;;;;;;4998465;28;20511;-86
2021/07/24 11:57:03;;;;;;;22.45;15.15;;;21.90;92.30;;;;;;4998618;28;20030;-87
2021/07/24 11:59:30;;;;;;;20.95;15.40;;;22.00;92.60;;;;;;4997618;28;20025;-83
2021/07/24 12:01:56;;;;;;;21.52;14.85;;;22.00;93.20;;;;;;4995938;28;20100;-81
2021/07/24 12:04:22;;;;;;;21.92;15.25;;;22.00;93.30;;;;;;5012301;28;20420;-83
2021/07/24 12:07:01;;;;;;;19.67;14.55;;;22.00;93.00;;;;;;4995572;28;20026;-83
2021/07/24 12:09:27;;;;;;;16.50;14.20;;;22.10;93.00;;;;;;5011367;22;20088;-86
2021/07/24 12:11:57;;;;;;;20.20;14.57;;;22.10;92.80;;;;;;4974568;28;20046;-85
2021/07/24 12:14:23;;;;;;;23.43;16.33;;;22.10;92.60;;;;;;4960350;28;20824;-86
2021/07/24 12:17:05;;;;;;;20.55;14.95;;;22.20;92.30;;;;;;4959158;28;20552;-85
2021/07/24 12:19:40;;;;;;;19.50;15.88;;;22.20;92.40;;;;;;4992408;28;20118;-86
2021/07/24 12:22:20;;;;;;;21.70;14.98;;;22.20;92.30;;;;;;4976751;28;20022;-85
2021/07/24 12:24:46;;;;;;;20.13;14.48;;;22.20;92.10;;;;;;4956328;28;20443;-85
2021/07/24 12:27:14;;;;;;;23.33;14.48;;;22.30;91.80;;;;;;4956437;28;20039;-85
2021/07/24 12:30:06;;;;;;;21.10;15.73;;;22.30;91.80;;;;;;4940484;28;20037;-86
2021/07/24 12:32:39;;;;;;;22.63;14.35;;;22.30;91.10;;;;;;4952958;28;20138;-85
2021/07/24 12:35:17;;;;;;;18.55;14.82;;;22.30;91.20;;;;;;4940654;28;20061;-85
2021/07/24 12:37:43;;;;;;;24.98;15.88;;;22.40;91.70;;;;;;4956695;28;20037;-85
2021/07/24 12:40:15;;;;;;;21.13;16.23;;;22.30;91.40;;;;;;4940351;28;20039;-85
2021/07/24 12:42:41;;;;;;;20.85;15.00;;;22.30;91.20;;;;;;4956750;28;20101;-85
2021/07/24 12:45:07;;;;;;;20.90;14.68;;;22.40;91.80;;;;;;4973008;28;20105;-86
2021/07/24 12:47:37;;;;;;;25.75;15.68;;;22.40;90.70;;;;;;4956235;28;20092;-86
2021/07/24 12:50:14;;;;;;;25.48;14.90;;;22.40;90.60;;;;;;4940741;28;20030;-84
2021/07/24 12:52:43;;;;;;;31.52;16.05;;;22.40;90.70;;;;;;4967023;28;20037;-83
2021/07/24 12:55:10;;;;;;;22.92;14.75;;;22.40;90.30;;;;;;4993444;28;20113;-84
2021/07/24 12:57:36;;;;;;;22.95;15.93;;;22.40;90.70;;;;;;4976317;28;20900;-83
2021/07/24 13:00:07;;;;;;;21.88;14.75;;;22.40;90.70;;;;;;4977093;28;20056;-83
2021/07/24 13:02:35;;;;;;;22.35;15.13;;;22.40;90.80;;;;;;4992256;28;20029;-84
2021/07/24 13:05:00;;;;;;;23.80;15.35;;;22.40;90.80;;;;;;4992247;28;20022;-86
2021/07/24 13:07:26;;;;;;;29.95;15.20;;;22.40;90.20;;;;;;4974992;28;20033;-84
2021/07/24 13:09:55;;;;;;;20.48;14.93;;;22.40;90.50;;;;;;4963051;28;20034;-85
2021/07/24 13:12:21;;;;;;;22.40;15.32;;;22.40;90.80;;;;;;4971622;28;20038;-86
2021/07/24 13:14:47;;;;;;;29.42;16.23;;;22.40;91.20;;;;;;4971742;28;20053;-84
2021/07/24 13:17:12;;;;;;;25.63;15.57;;;22.40;91.00;;;;;;4975242;28;20513;-83
2021/07/24 13:19:38;;;;;;;21.45;15.00;;;22.40;91.70;;;;;;4956364;28;20022;-84
2021/07/24 13:22:03;;;;;;;18.98;15.13;;;22.30;92.40;;;;;;4955322;28;20212;-84
2021/07/24 13:24:31;;;;;;;28.00;16.13;;;22.30;92.10;;;;;;4971240;28;20451;-84
2021/07/24 13:29:49;;;;;;;25.55;16.58;;;22.30;91.60;;;;;;4992779;28;20121;-85
2021/07/24 13:32:18;;;;;;;22.42;13.63;;;22.30;91.80;;;;;;4974398;28;20125;-84
2021/07/24 13:34:44;;;;;;;31.15;16.58;;;22.20;91.90;;;;;;4958335;28;20032;-84
2021/07/24 13:37:14;;;;;;;22.02;15.48;;;22.30;92.30;;;;;;4973899;28;20026;-83
2021/07/24 13:39:42;;;;;;;25.80;16.27;;;22.30;92.00;;;;;;4958419;28;20030;-84
2021/07/24 13:42:13;;;;;;;24.98;15.07;;;22.30;92.20;;;;;;4974321;28;20528;-84
2021/07/24 13:44:42;;;;;;;20.38;14.80;;;22.20;92.30;;;;;;4958932;28;20568;-84
2021/07/24 13:47:08;;;;;;;20.83;15.70;;;22.20;92.30;;;;;;4990215;28;20026;-84
2021/07/24 13:49:42;;;;;;;26.35;15.93;;;22.20;92.10;;;;;;4990343;28;20033;-84
2021/07/24 13:52:08;;;;;;;24.10;17.10;;;22.20;92.10;;;;;;4959334;28;20029;-83
2021/07/24 13:54:37;;;;;;;23.27;16.77;;;22.20;92.20;;;;;;4990351;28;20227;-84
2021/07/24 13:57:06;;;;;;;27.83;16.90;;;22.10;92.30;;;;;;4957601;28;20030;-84